PHMTP EHAM-EDNY
Flight info
| Callsign | PHMTP |
|---|---|
| Flight time | N/A |
| Altitude | 19000 |
| Route | RENDI2G/22 EDUPO Z739 MISGO DCT ASBON DCT TUSUK DCT LAMGO T721 SUL DCT ZUE ZUE1F |
| Aircraft | B58T/L-SDFGRY/C |
Departure
| Time | N/A |
|---|---|
| Airport | Amsterdam Airport Schiphol (EHAM) |
Arrival
| Time | 2026-05-04 13:17 |
|---|---|
| Airport | Bodensee Airport Friedrichshafen (EDNY) |
| Time | Latitude | Longitude | Altitude | Speed | Heading |
|---|---|---|---|---|---|
| 2026-05-04 12:36 | 49.14061 | 8.65448 | 18986 ft | 193 kts | 167° |
| 2026-05-04 12:37 | 49.12787 | 8.66075 | 18984 ft | 192 kts | 167° |
| 2026-05-04 12:37 | 49.11517 | 8.66700 | 18986 ft | 191 kts | 167° |
| 2026-05-04 12:37 | 49.10250 | 8.67322 | 18985 ft | 191 kts | 167° |
| 2026-05-04 12:37 | 49.08983 | 8.67944 | 18983 ft | 191 kts | 167° |
| 2026-05-04 12:38 | 49.07718 | 8.68566 | 18984 ft | 191 kts | 167° |
| 2026-05-04 12:38 | 49.06450 | 8.69187 | 18983 ft | 191 kts | 167° |
| 2026-05-04 12:38 | 49.05185 | 8.69808 | 18984 ft | 191 kts | 167° |
| 2026-05-04 12:38 | 49.03915 | 8.70429 | 18985 ft | 191 kts | 167° |
| 2026-05-04 12:39 | 49.02647 | 8.71051 | 18985 ft | 192 kts | 167° |
| 2026-05-04 12:39 | 49.01373 | 8.71676 | 18984 ft | 192 kts | 167° |
| 2026-05-04 12:39 | 49.00119 | 8.72290 | 18984 ft | 192 kts | 167° |
| 2026-05-04 12:39 | 48.98849 | 8.72910 | 18984 ft | 192 kts | 167° |
| 2026-05-04 12:40 | 48.97577 | 8.73532 | 18982 ft | 191 kts | 167° |
| 2026-05-04 12:40 | 48.96308 | 8.74152 | 18981 ft | 191 kts | 167° |
| 2026-05-04 12:40 | 48.95046 | 8.74769 | 18982 ft | 191 kts | 167° |
| 2026-05-04 12:40 | 48.93778 | 8.75387 | 18981 ft | 191 kts | 167° |
| 2026-05-04 12:41 | 48.92532 | 8.75995 | 18982 ft | 191 kts | 167° |
| 2026-05-04 12:41 | 48.91266 | 8.76612 | 18982 ft | 191 kts | 167° |
| 2026-05-04 12:41 | 48.89996 | 8.77232 | 18982 ft | 191 kts | 167° |
| 2026-05-04 12:41 | 48.88724 | 8.77763 | 18982 ft | 187 kts | 178° |
| 2026-05-04 12:42 | 48.87451 | 8.77621 | 18983 ft | 183 kts | 193° |
| 2026-05-04 12:42 | 48.86197 | 8.77274 | 18983 ft | 183 kts | 193° |
| 2026-05-04 12:42 | 48.84940 | 8.76941 | 18984 ft | 183 kts | 193° |
| 2026-05-04 12:42 | 48.83682 | 8.76604 | 18983 ft | 184 kts | 193° |
| 2026-05-04 12:43 | 48.82418 | 8.76264 | 18982 ft | 184 kts | 193° |
| 2026-05-04 12:43 | 48.81172 | 8.75929 | 18983 ft | 184 kts | 193° |
| 2026-05-04 12:43 | 48.79905 | 8.75589 | 18984 ft | 185 kts | 193° |
| 2026-05-04 12:43 | 48.78639 | 8.75250 | 18982 ft | 185 kts | 193° |
| 2026-05-04 12:44 | 48.77373 | 8.74911 | 18982 ft | 185 kts | 193° |
| 2026-05-04 12:44 | 48.76107 | 8.74571 | 18981 ft | 185 kts | 193° |
| 2026-05-04 12:44 | 48.74828 | 8.74229 | 18983 ft | 186 kts | 192° |
| 2026-05-04 12:44 | 48.73552 | 8.73887 | 18980 ft | 186 kts | 192° |
| 2026-05-04 12:45 | 48.72265 | 8.73542 | 18987 ft | 189 kts | 192° |
| 2026-05-04 12:45 | 48.70976 | 8.73199 | 18984 ft | 191 kts | 192° |
| 2026-05-04 12:45 | 48.69670 | 8.72850 | 18982 ft | 190 kts | 192° |
| 2026-05-04 12:45 | 48.68370 | 8.72503 | 18980 ft | 189 kts | 192° |
| 2026-05-04 12:46 | 48.67079 | 8.72159 | 18978 ft | 188 kts | 192° |
| 2026-05-04 12:46 | 48.65791 | 8.71815 | 18977 ft | 187 kts | 192° |
| 2026-05-04 12:46 | 48.64511 | 8.71474 | 18973 ft | 187 kts | 193° |
| 2026-05-04 12:46 | 48.63229 | 8.71131 | 18973 ft | 186 kts | 192° |
| 2026-05-04 12:47 | 48.61950 | 8.70793 | 18976 ft | 186 kts | 192° |
| 2026-05-04 12:47 | 48.60674 | 8.70452 | 18974 ft | 186 kts | 192° |
| 2026-05-04 12:47 | 48.59397 | 8.70112 | 18972 ft | 186 kts | 192° |
| 2026-05-04 12:47 | 48.58126 | 8.69774 | 18973 ft | 186 kts | 192° |
| 2026-05-04 12:48 | 48.56850 | 8.69435 | 18971 ft | 186 kts | 192° |
| 2026-05-04 12:48 | 48.55574 | 8.69097 | 18973 ft | 186 kts | 193° |
| 2026-05-04 12:48 | 48.54294 | 8.68756 | 18970 ft | 186 kts | 193° |
| 2026-05-04 12:48 | 48.53030 | 8.68421 | 18970 ft | 187 kts | 193° |
| 2026-05-04 12:49 | 48.51737 | 8.68078 | 18972 ft | 186 kts | 192° |
| 2026-05-04 12:49 | 48.50474 | 8.67742 | 18973 ft | 187 kts | 192° |
| 2026-05-04 12:49 | 48.49191 | 8.67403 | 18976 ft | 188 kts | 192° |
| 2026-05-04 12:49 | 48.47900 | 8.67062 | 18977 ft | 188 kts | 192° |
| 2026-05-04 12:50 | 48.46608 | 8.66720 | 18978 ft | 189 kts | 192° |
| 2026-05-04 12:50 | 48.45311 | 8.66376 | 18976 ft | 189 kts | 193° |
| 2026-05-04 12:50 | 48.44017 | 8.66035 | 18976 ft | 188 kts | 192° |
| 2026-05-04 12:50 | 48.42731 | 8.65695 | 18975 ft | 187 kts | 192° |
| 2026-05-04 12:51 | 48.41450 | 8.65357 | 18971 ft | 186 kts | 192° |
| 2026-05-04 12:51 | 48.40173 | 8.65020 | 18971 ft | 186 kts | 192° |
| 2026-05-04 12:51 | 48.38894 | 8.64681 | 18971 ft | 187 kts | 193° |
| 2026-05-04 12:51 | 48.37596 | 8.64595 | 18972 ft | 190 kts | 176° |
| 2026-05-04 12:52 | 48.36287 | 8.64911 | 18975 ft | 190 kts | 176° |
| 2026-05-04 12:52 | 48.34981 | 8.65196 | 18976 ft | 189 kts | 176° |
| 2026-05-04 12:52 | 48.33677 | 8.65481 | 18976 ft | 189 kts | 176° |
| 2026-05-04 12:52 | 48.32374 | 8.65771 | 18969 ft | 189 kts | 176° |
| 2026-05-04 12:53 | 48.31089 | 8.66057 | 18970 ft | 188 kts | 176° |
| 2026-05-04 12:53 | 48.29793 | 8.66344 | 18970 ft | 188 kts | 176° |
| 2026-05-04 12:53 | 48.28496 | 8.66631 | 18970 ft | 188 kts | 175° |
| 2026-05-04 12:53 | 48.27199 | 8.66918 | 18970 ft | 188 kts | 176° |
| 2026-05-04 12:54 | 48.25904 | 8.67204 | 18942 ft | 189 kts | 176° |
| 2026-05-04 12:54 | 48.24571 | 8.67497 | 18681 ft | 193 kts | 175° |
| 2026-05-04 12:54 | 48.23243 | 8.67792 | 18404 ft | 192 kts | 175° |
| 2026-05-04 12:54 | 48.21922 | 8.68085 | 18101 ft | 190 kts | 176° |
| 2026-05-04 12:55 | 48.20622 | 8.68372 | 17785 ft | 189 kts | 176° |
| 2026-05-04 12:55 | 48.19326 | 8.68658 | 17482 ft | 187 kts | 175° |
| 2026-05-04 12:55 | 48.18064 | 8.68937 | 17220 ft | 185 kts | 176° |
| 2026-05-04 12:55 | 48.16782 | 8.69218 | 16960 ft | 188 kts | 176° |
| 2026-05-04 12:56 | 48.15480 | 8.69505 | 16707 ft | 190 kts | 176° |
| 2026-05-04 12:56 | 48.14164 | 8.69794 | 16447 ft | 192 kts | 176° |
| 2026-05-04 12:56 | 48.12842 | 8.70086 | 16206 ft | 193 kts | 176° |
| 2026-05-04 12:56 | 48.11511 | 8.70379 | 15957 ft | 193 kts | 175° |
| 2026-05-04 12:57 | 48.10176 | 8.70673 | 15700 ft | 194 kts | 175° |
| 2026-05-04 12:57 | 48.08840 | 8.70966 | 15452 ft | 194 kts | 175° |
| 2026-05-04 12:57 | 48.07521 | 8.71256 | 15191 ft | 194 kts | 175° |
| 2026-05-04 12:57 | 48.06180 | 8.71551 | 14925 ft | 195 kts | 176° |
| 2026-05-04 12:58 | 48.04832 | 8.71847 | 14663 ft | 196 kts | 175° |
| 2026-05-04 12:58 | 48.03471 | 8.72145 | 14402 ft | 197 kts | 176° |
| 2026-05-04 12:58 | 48.02109 | 8.72443 | 14144 ft | 199 kts | 176° |
| 2026-05-04 12:58 | 48.00743 | 8.72743 | 13884 ft | 198 kts | 176° |
| 2026-05-04 12:59 | 47.99388 | 8.73041 | 13608 ft | 196 kts | 176° |
| 2026-05-04 12:59 | 47.98036 | 8.73336 | 13315 ft | 196 kts | 176° |
| 2026-05-04 12:59 | 47.96686 | 8.73631 | 13023 ft | 195 kts | 176° |
| 2026-05-04 12:59 | 47.95348 | 8.73924 | 12720 ft | 195 kts | 176° |
| 2026-05-04 13:00 | 47.94029 | 8.74214 | 12467 ft | 193 kts | 176° |
| 2026-05-04 13:00 | 47.92706 | 8.74501 | 12206 ft | 191 kts | 176° |
| 2026-05-04 13:00 | 47.91396 | 8.74787 | 11951 ft | 190 kts | 176° |
| 2026-05-04 13:00 | 47.90084 | 8.75074 | 11692 ft | 189 kts | 176° |
| 2026-05-04 13:01 | 47.88786 | 8.75357 | 11442 ft | 188 kts | 176° |
| 2026-05-04 13:01 | 47.87495 | 8.75639 | 11195 ft | 188 kts | 176° |
| 2026-05-04 13:01 | 47.86208 | 8.75919 | 10965 ft | 186 kts | 175° |
| 2026-05-04 13:01 | 47.84926 | 8.76199 | 10737 ft | 185 kts | 175° |
| 2026-05-04 13:02 | 47.83643 | 8.76477 | 10494 ft | 186 kts | 175° |
| 2026-05-04 13:02 | 47.82364 | 8.76759 | 10254 ft | 187 kts | 173° |
| 2026-05-04 13:02 | 47.81215 | 8.77685 | 10011 ft | 196 kts | 135° |
| 2026-05-04 13:02 | 47.80689 | 8.79562 | 9771 ft | 204 kts | 96° |
| 2026-05-04 13:03 | 47.80991 | 8.81621 | 9524 ft | 206 kts | 68° |
| 2026-05-04 13:03 | 47.81459 | 8.83599 | 9279 ft | 205 kts | 78° |
| 2026-05-04 13:03 | 47.81678 | 8.85721 | 9019 ft | 204 kts | 86° |
| 2026-05-04 13:03 | 47.81824 | 8.87781 | 8762 ft | 201 kts | 85° |
| 2026-05-04 13:04 | 47.81993 | 8.89826 | 8493 ft | 198 kts | 84° |
| 2026-05-04 13:04 | 47.82172 | 8.91850 | 8237 ft | 197 kts | 84° |
| 2026-05-04 13:04 | 47.82348 | 8.93866 | 7980 ft | 195 kts | 84° |
| 2026-05-04 13:04 | 47.82520 | 8.95853 | 7722 ft | 192 kts | 84° |
| 2026-05-04 13:05 | 47.82689 | 8.97812 | 7478 ft | 190 kts | 84° |
| 2026-05-04 13:05 | 47.82856 | 8.99756 | 7231 ft | 189 kts | 84° |
| 2026-05-04 13:05 | 47.83022 | 9.01689 | 6986 ft | 188 kts | 85° |
| 2026-05-04 13:05 | 47.83186 | 9.03619 | 6746 ft | 187 kts | 85° |
| 2026-05-04 13:06 | 47.83351 | 9.05536 | 6506 ft | 186 kts | 84° |
| 2026-05-04 13:06 | 47.83513 | 9.07412 | 6262 ft | 184 kts | 86° |
| 2026-05-04 13:06 | 47.83248 | 9.09208 | 6007 ft | 179 kts | 126° |
| 2026-05-04 13:06 | 47.82546 | 9.10655 | 5966 ft | 171 kts | 111° |
| 2026-05-04 13:07 | 47.82606 | 9.12408 | 5973 ft | 176 kts | 68° |
| 2026-05-04 13:07 | 47.83121 | 9.14067 | 5962 ft | 176 kts | 73° |
| 2026-05-04 13:07 | 47.83348 | 9.15833 | 5964 ft | 172 kts | 86° |
| 2026-05-04 13:07 | 47.83599 | 9.17578 | 5965 ft | 173 kts | 71° |
| 2026-05-04 13:08 | 47.84015 | 9.19256 | 5960 ft | 173 kts | 74° |
| 2026-05-04 13:08 | 47.84439 | 9.20948 | 5964 ft | 176 kts | 68° |
| 2026-05-04 13:08 | 47.84907 | 9.22646 | 5970 ft | 178 kts | 70° |
| 2026-05-04 13:08 | 47.85296 | 9.24404 | 5969 ft | 179 kts | 78° |
| 2026-05-04 13:09 | 47.85437 | 9.26251 | 5965 ft | 181 kts | 93° |
| 2026-05-04 13:09 | 47.85222 | 9.28087 | 5850 ft | 182 kts | 107° |
| 2026-05-04 13:09 | 47.85043 | 9.29950 | 5717 ft | 182 kts | 93° |
| 2026-05-04 13:09 | 47.85080 | 9.31818 | 5589 ft | 179 kts | 89° |
| 2026-05-04 13:10 | 47.85123 | 9.33043 | 5501 ft | 177 kts | 90° |
| 2026-05-04 13:10 | 47.84869 | 9.34801 | 5373 ft | 174 kts | 114° |
| 2026-05-04 13:10 | 47.84392 | 9.36428 | 5243 ft | 169 kts | 115° |
| 2026-05-04 13:10 | 47.83654 | 9.38396 | 5068 ft | 162 kts | 139° |
| 2026-05-04 13:11 | 47.82747 | 9.39352 | 4960 ft | 156 kts | 147° |
| 2026-05-04 13:11 | 47.82142 | 9.39944 | 4954 ft | 152 kts | 147° |
| 2026-05-04 13:11 | 47.81266 | 9.40797 | 4909 ft | 152 kts | 148° |
| 2026-05-04 13:11 | 47.80382 | 9.41633 | 4712 ft | 151 kts | 149° |
| 2026-05-04 13:12 | 47.79486 | 9.42432 | 4504 ft | 150 kts | 149° |
| 2026-05-04 13:12 | 47.78594 | 9.43220 | 4299 ft | 149 kts | 149° |
| 2026-05-04 13:12 | 47.77699 | 9.44006 | 4072 ft | 150 kts | 149° |
| 2026-05-04 13:12 | 47.76788 | 9.44799 | 3820 ft | 152 kts | 149° |
| 2026-05-04 13:13 | 47.75877 | 9.45588 | 3577 ft | 152 kts | 149° |
| 2026-05-04 13:13 | 47.74968 | 9.46369 | 3330 ft | 150 kts | 149° |
| 2026-05-04 13:13 | 47.74068 | 9.47139 | 3097 ft | 146 kts | 149° |
| 2026-05-04 13:13 | 47.73213 | 9.47889 | 2917 ft | 140 kts | 149° |
| 2026-05-04 13:14 | 47.72384 | 9.48621 | 2770 ft | 137 kts | 148° |
| 2026-05-04 13:14 | 47.71697 | 9.49462 | 2713 ft | 124 kts | 116° |
| 2026-05-04 13:14 | 47.71728 | 9.50645 | 2640 ft | 119 kts | 57° |
| 2026-05-04 13:14 | 47.72157 | 9.51692 | 2639 ft | 118 kts | 57° |
| 2026-05-04 13:15 | 47.72435 | 9.52793 | 2645 ft | 116 kts | 96° |
| 2026-05-04 13:15 | 47.72005 | 9.53807 | 2576 ft | 121 kts | 138° |
| 2026-05-04 13:15 | 47.71349 | 9.54557 | 2461 ft | 112 kts | 146° |
| 2026-05-04 13:15 | 47.70648 | 9.55009 | 2270 ft | 111 kts | 162° |
| 2026-05-04 13:16 | 47.69906 | 9.55267 | 2102 ft | 108 kts | 182° |
| 2026-05-04 13:16 | 47.69170 | 9.55088 | 1882 ft | 106 kts | 197° |
| 2026-05-04 13:16 | 47.68531 | 9.54586 | 1738 ft | 104 kts | 221° |
| 2026-05-04 13:16 | 47.68118 | 9.53726 | 1615 ft | 104 kts | 241° |
| 2026-05-04 13:17 | 47.67769 | 9.52791 | 1471 ft | 103 kts | 240° |
| 2026-05-04 13:17 | 47.67417 | 9.51882 | 1362 ft | 97 kts | 237° |
| 2026-05-04 13:17 | 47.67152 | 9.51202 | 1355 ft | 50 kts | 240° |
| 2026-05-04 13:17 | 47.67038 | 9.50910 | 1347 ft | 29 kts | 241° |
| 2026-05-04 13:18 | 47.66951 | 9.50737 | 1344 ft | 19 kts | 214° |
| 2026-05-04 13:18 | 47.66847 | 9.50642 | 1346 ft | 13 kts | 210° |
| 2026-05-04 13:18 | 47.66802 | 9.50605 | 1346 ft | 0 kts | 195° |
| 2026-05-04 13:19 | 47.66794 | 9.50602 | 1347 ft | 6 kts | 186° |
| 2026-05-04 13:19 | 47.66764 | 9.50671 | 1345 ft | 13 kts | 72° |
| 2026-05-04 13:19 | 47.66816 | 9.50809 | 1343 ft | 17 kts | 59° |
| 2026-05-04 13:20 | 47.66880 | 9.50976 | 1347 ft | 20 kts | 59° |
| 2026-05-04 13:20 | 47.66943 | 9.51136 | 1348 ft | 17 kts | 60° |
| 2026-05-04 13:20 | 47.66985 | 9.51249 | 1351 ft | 13 kts | 57° |
| 2026-05-04 13:20 | 47.67023 | 9.51362 | 1353 ft | 7 kts | 106° |
| 2026-05-04 13:21 | 47.66978 | 9.51411 | 1355 ft | 8 kts | 158° |
| 2026-05-04 13:21 | 47.66931 | 9.51346 | 1354 ft | 11 kts | 231° |
| 2026-05-04 13:21 | 47.66891 | 9.51329 | 1353 ft | 5 kts | 178° |
| 2026-05-04 13:21 | 47.66884 | 9.51309 | 1353 ft | 0 kts | 319° |